Time;durP1;ratioP1;P1;durP2;ratioP2;P2;SDS_P1;SDS_P2;PMS_P1;PMS_P2;Temp;Humidity;BMP_temperature;BMP_pressure;BME280_temperature;BME280_humidity;BME280_pressure;Samples;Min_cycle;Max_cycle;Signal;HPM_P1;HPM_P2
2022/04/22 00:01:01;;;;;;;16.90;13.10;;;;;;;7.31;64.97;100728.32;107237;1251;73956;-71
2022/04/22 00:03:30;;;;;;;21.30;13.20;;;;;;;7.32;64.62;100730.73;107079;1250;62012;-70
2022/04/22 00:06:00;;;;;;;16.90;12.80;;;;;;;7.29;63.27;100732.98;107242;1253;60747;-71
2022/04/22 00:08:30;;;;;;;17.80;13.80;;;;;;;7.22;65.01;100729.59;107395;1249;73255;-70
2022/04/22 00:13:47;;;;;;;17.10;12.90;;;;;;;7.18;65.07;100733.92;107307;1250;70074;-71
2022/04/22 00:16:17;;;;;;;17.90;14.30;;;;;;;7.18;65.34;100732.23;107098;1253;73629;-73
2022/04/22 00:18:46;;;;;;;16.80;13.20;;;;;;;7.23;65.85;100730.73;107107;1252;59253;-71
2022/04/22 00:21:15;;;;;;;17.10;12.70;;;;;;;7.20;66.15;100728.78;107017;1253;59818;-71
2022/04/22 00:23:44;;;;;;;18.60;13.50;;;;;;;7.20;66.41;100730.58;107260;1253;72021;-70
2022/04/22 00:26:17;;;;;;;16.90;12.60;;;;;;;7.17;66.25;100731.90;107540;1250;72228;-69
2022/04/22 00:28:46;;;;;;;17.80;13.20;;;;;;;7.22;65.94;100731.51;107611;1251;68404;-70
2022/04/22 00:31:16;;;;;;;19.30;14.00;;;;;;;7.24;66.08;100733.08;107478;1251;73199;-75
2022/04/22 00:37:28;;;;;;;18.50;13.90;;;;;;;7.14;67.21;100731.73;107452;1251;60775;-73
2022/04/22 00:39:59;;;;;;;18.90;13.70;;;;;;;7.04;67.39;100739.26;107426;1251;70762;-73
2022/04/22 00:42:28;;;;;;;22.40;14.10;;;;;;;6.98;67.64;100738.73;107346;1249;70514;-70
2022/04/22 00:44:57;;;;;;;22.70;13.70;;;;;;;7.00;66.02;100738.61;107334;1250;67974;-73
2022/04/22 00:47:26;;;;;;;15.60;13.00;;;;;;;6.90;65.88;100736.57;107272;1250;74853;-72
2022/04/22 00:49:56;;;;;;;18.20;14.00;;;;;;;6.75;68.35;100735.71;107259;1250;60728;-70
2022/04/22 00:52:25;;;;;;;21.10;14.80;;;;;;;6.59;69.14;100735.88;107177;1252;59926;-72
2022/04/22 00:54:54;;;;;;;21.60;14.30;;;;;;;6.61;69.38;100734.05;107434;1251;71483;-71
2022/04/22 00:57:23;;;;;;;21.80;14.30;;;;;;;6.64;68.72;100736.65;107499;1250;69553;-72
2022/04/22 00:59:52;;;;;;;21.30;14.00;;;;;;;6.65;68.40;100736.08;107468;1250;69215;-73
2022/04/22 01:02:21;;;;;;;20.50;14.80;;;;;;;6.60;69.02;100732.88;107515;1250;71308;-70
2022/04/22 01:10:25;;;;;;;21.90;16.00;;;;;;;6.51;69.13;100733.55;107282;1250;72307;-71
2022/04/22 01:28:51;;;;;;;20.80;14.80;;;;;;;6.35;69.69;100741.05;107150;1249;61359;-73
2022/04/22 01:31:22;;;;;;;21.60;15.00;;;;;;;6.31;69.96;100736.20;107214;1250;73363;-73
2022/04/22 01:33:51;;;;;;;23.00;15.50;;;;;;;6.26;70.46;100736.85;107100;1251;71122;-77
2022/04/22 01:36:21;;;;;;;24.70;15.90;;;;;;;6.24;70.63;100736.77;107179;1250;68751;-76
2022/04/22 01:38:49;;;;;;;21.70;15.80;;;;;;;6.23;70.38;100738.22;107042;1251;74303;-73
2022/04/22 01:41:18;;;;;;;21.60;15.90;;;;;;;6.19;68.89;100731.85;107404;1252;60038;-75
2022/04/22 01:43:47;;;;;;;21.90;14.90;;;;;;;6.02;70.86;100724.64;107157;1254;59724;-73
2022/04/22 01:46:16;;;;;;;21.30;15.30;;;;;;;6.01;70.90;100729.89;107240;1251;71917;-75
2022/04/22 01:48:44;;;;;;;21.20;15.60;;;;;;;5.97;71.53;100730.96;107162;1252;72045;-72
2022/04/22 01:51:13;;;;;;;20.10;15.00;;;;;;;5.95;71.32;100729.87;107073;1253;69315;-73
2022/04/22 01:53:42;;;;;;;20.50;14.90;;;;;;;5.94;71.70;100730.58;107005;1251;71412;-74
2022/04/22 01:56:12;;;;;;;22.00;16.20;;;;;;;5.95;71.46;100729.52;107008;1251;60450;-75
2022/04/22 01:58:40;;;;;;;22.10;16.30;;;;;;;5.88;69.31;100725.67;107038;1251;60684;-71
2022/04/22 02:01:09;;;;;;;22.70;14.80;;;;;;;5.77;70.24;100724.55;107031;1251;71112;-75
2022/04/22 02:03:38;;;;;;;22.00;16.10;;;;;;;5.71;71.60;100724.85;107070;1252;72216;-72
2022/04/22 02:06:06;;;;;;;27.60;17.30;;;;;;;5.65;71.90;100725.52;106930;1254;69205;-72
2022/04/22 02:08:36;;;;;;;27.90;19.10;;;;;;;5.55;71.75;100725.83;106870;1254;72059;-71
2022/04/22 02:11:05;;;;;;;24.70;17.60;;;;;;;5.47;70.96;100722.10;106926;1251;59858;-71
2022/04/22 02:13:36;;;;;;;27.00;17.80;;;;;;;5.37;71.33;100722.95;106943;1254;58992;-74
2022/04/22 02:16:07;;;;;;;24.60;16.40;;;;;;;5.32;72.72;100721.50;107001;1251;73716;-72
2022/04/22 02:18:37;;;;;;;25.40;17.40;;;;;;;5.29;73.02;100722.31;107063;1251;71777;-74
2022/04/22 02:21:07;;;;;;;25.80;16.90;;;;;;;5.26;72.90;100726.08;106802;1253;70815;-74
2022/04/22 02:23:37;;;;;;;20.90;15.60;;;;;;;5.22;72.83;100727.86;107311;1254;70753;-75
2022/04/22 02:26:06;;;;;;;21.80;15.70;;;;;;;5.18;73.28;100726.35;107499;1251;62595;-73
2022/04/22 02:28:35;;;;;;;26.00;16.80;;;;;;;5.13;72.63;100725.39;107416;1251;60330;-77
2022/04/22 02:31:12;;;;;;;25.30;15.50;;;;;;;5.06;72.80;100723.30;107072;1253;74080;-76
2022/04/22 02:33:42;;;;;;;22.50;15.90;;;;;;;5.02;73.63;100722.44;107206;1253;72645;-75
2022/04/22 02:36:11;;;;;;;26.30;16.90;;;;;;;4.95;73.65;100717.80;107335;1253;69506;-76
2022/04/22 02:38:40;;;;;;;25.50;17.00;;;;;;;4.91;73.60;100725.23;107169;1254;72079;-73
2022/04/22 02:46:43;;;;;;;25.30;16.80;;;;;;;4.67;73.95;100719.33;106780;1253;564964;-71
2022/04/22 02:49:12;;;;;;;24.30;16.10;;;;;;;4.67;74.54;100717.62;107169;1251;69624;-71
2022/04/22 02:51:41;;;;;;;22.70;15.50;;;;;;;4.64;74.32;100716.35;107199;1251;70528;-71
2022/04/22 02:54:09;;;;;;;26.80;17.60;;;;;;;4.59;72.96;100720.76;106983;1254;74060;-72
2022/04/22 02:56:39;;;;;;;29.00;18.30;;;;;;;4.53;74.53;100719.43;107011;1254;59164;-71
2022/04/22 02:59:08;;;;;;;25.90;17.60;;;;;;;4.53;74.52;100716.88;107231;1251;61315;-71
2022/04/22 03:01:38;;;;;;;24.40;16.50;;;;;;;4.48;73.68;100721.08;107474;1251;71714;-73
2022/04/22 03:04:07;;;;;;;26.70;16.60;;;;;;;4.47;74.64;100715.95;107279;1251;71790;-73
2022/04/22 03:06:35;;;;;;;25.40;16.90;;;;;;;4.49;74.48;100710.85;107293;1251;71084;-72
2022/04/22 03:09:05;;;;;;;23.90;17.00;;;;;;;4.48;74.52;100714.36;107192;1251;70731;-74
2022/04/22 03:11:34;;;;;;;22.40;16.00;;;;;;;4.47;74.23;100716.28;107332;1249;60189;-70
2022/04/22 03:14:03;;;;;;;26.20;17.20;;;;;;;4.47;74.42;100726.46;107281;1250;59248;-72
2022/04/22 03:16:35;;;;;;;24.90;17.10;;;;;;;4.45;74.03;100726.88;107016;1253;72862;-74
2022/04/22 03:19:03;;;;;;;23.20;15.40;;;;;;;4.42;74.13;100727.58;107263;1251;71871;-73
2022/04/22 03:21:33;;;;;;;21.00;16.10;;;;;;;4.40;74.64;100726.80;107231;1251;69017;-74
2022/04/22 03:24:02;;;;;;;22.50;16.50;;;;;;;4.41;74.40;100727.93;107120;1251;74481;-71
2022/04/22 03:26:31;;;;;;;25.30;16.40;;;;;;;4.40;74.31;100727.48;107058;1251;60978;-74
2022/04/22 03:28:59;;;;;;;25.10;17.00;;;;;;;4.39;74.28;100729.42;107140;1253;60568;-72
2022/04/22 03:31:28;;;;;;;28.30;17.20;;;;;;;4.44;74.45;100731.98;107172;1251;71731;-71
2022/04/22 03:33:57;;;;;;;25.30;17.10;;;;;;;4.43;74.66;100733.58;107228;1251;72287;-73
2022/04/22 03:36:25;;;;;;;24.00;16.40;;;;;;;4.43;74.62;100732.02;107175;1253;70921;-74
2022/04/22 03:38:54;;;;;;;26.30;17.20;;;;;;;4.48;74.21;100733.34;107295;1251;72535;-73
2022/04/22 03:41:23;;;;;;;24.70;16.80;;;;;;;4.50;73.85;100733.07;107213;1251;60581;-74
2022/04/22 03:43:51;;;;;;;25.10;17.90;;;;;;;4.49;73.94;100732.92;107278;1251;60531;-75
2022/04/22 03:46:20;;;;;;;25.30;18.40;;;;;;;4.48;74.34;100731.42;107307;1251;72154;-74
2022/04/22 03:48:49;;;;;;;27.50;17.20;;;;;;;4.43;74.74;100732.35;107316;1251;69406;-73
2022/04/22 03:51:17;;;;;;;27.80;17.70;;;;;;;4.44;74.33;100731.61;107326;1251;70650;-77
2022/04/22 03:53:46;;;;;;;25.50;17.30;;;;;;;4.41;74.55;100731.39;107282;1251;72004;-74
2022/04/22 03:59:02;;;;;;;28.30;18.00;;;;;;;4.54;73.93;100732.54;107254;1251;60048;-74
2022/04/22 04:01:31;;;;;;;24.10;16.40;;;;;;;4.64;74.04;100730.16;107294;1250;74317;-75
2022/04/22 04:04:01;;;;;;;24.10;16.80;;;;;;;4.75;73.40;100733.42;107175;1251;72623;-72
2022/04/22 04:06:29;;;;;;;25.00;17.40;;;;;;;4.84;72.99;100730.40;107134;1251;70804;-73
2022/04/22 04:17:21;;;;;;;21.90;16.70;;;;;;;5.19;72.41;100745.79;107097;1250;71032;-73
2022/04/22 04:25:23;;;;;;;26.90;17.80;;;;;;;5.50;71.84;100748.04;107088;1251;73758;-73
2022/04/22 04:27:52;;;;;;;24.40;17.60;;;;;;;5.63;71.90;100747.05;107029;1253;61898;-73
2022/04/22 04:30:21;;;;;;;25.10;18.60;;;;;;;5.80;71.79;100751.35;107088;1251;59058;-74
2022/04/22 04:32:50;;;;;;;28.70;18.70;;;;;;;5.95;71.16;100755.77;107055;1251;73143;-75
2022/04/22 04:35:19;;;;;;;28.90;18.20;;;;;;;6.09;70.54;100757.61;107072;1251;72266;-75
2022/04/22 04:37:47;;;;;;;27.00;18.10;;;;;;;6.25;70.14;100755.73;106923;1251;69416;-72
2022/04/22 04:40:16;;;;;;;27.20;18.80;;;;;;;6.42;69.72;100755.69;106977;1254;72499;-73
2022/04/22 04:42:45;;;;;;;25.90;18.30;;;;;;;6.51;69.52;100747.05;106988;1251;59185;-76
2022/04/22 04:45:13;;;;;;;32.00;20.30;;;;;;;6.72;69.16;100757.52;107078;1253;59058;-74
2022/04/22 04:47:42;;;;;;;36.60;23.60;;;;;;;6.86;68.92;100755.35;107174;1251;70907;-73
2022/04/22 04:50:12;;;;;;;43.30;25.20;;;;;;;7.04;68.72;100753.48;107128;1251;71669;-74
2022/04/22 04:52:41;;;;;;;32.80;21.60;;;;;;;7.18;67.90;100753.84;107204;1251;67915;-74
2022/04/22 04:55:15;;;;;;;36.70;23.70;;;;;;;7.35;67.56;100755.13;107028;1252;73507;-74
2022/04/22 04:57:44;;;;;;;43.10;24.70;;;;;;;7.51;66.73;100749.19;107068;1251;59266;-76
2022/04/22 05:00:18;;;;;;;35.60;22.80;;;;;;;7.69;66.00;100749.15;107113;1251;59316;-74
2022/04/22 05:02:47;;;;;;;33.60;22.20;;;;;;;7.86;65.45;100756.43;107137;1251;72168;-76
2022/04/22 05:05:17;;;;;;;31.20;21.80;;;;;;;8.06;64.47;100757.33;107000;1251;71723;-76
2022/04/22 05:07:59;;;;;;;34.10;21.70;;;;;;;8.24;63.16;100762.42;107107;1251;71745;-77
2022/04/22 05:10:31;;;;;;;30.30;20.80;;;;;;;8.40;63.05;100760.63;107326;1253;72540;-77
2022/04/22 05:13:03;;;;;;;35.50;21.20;;;;;;;8.47;61.69;100754.98;107274;1254;60559;-76
2022/04/22 05:15:33;;;;;;;29.50;20.50;;;;;;;8.60;61.33;100762.66;107461;1251;62395;-76
2022/04/22 05:18:02;;;;;;;30.00;19.60;;;;;;;8.76;60.25;100762.16;107366;1253;72844;-76
2022/04/22 05:20:34;;;;;;;28.50;18.40;;;;;;;8.91;59.31;100761.70;107313;1253;71266;-75
2022/04/22 05:23:04;;;;;;;27.60;19.80;;;;;;;9.03;58.70;100757.80;107172;1253;69365;-77
2022/04/22 05:25:33;;;;;;;26.10;19.10;;;;;;;9.21;58.62;100758.00;107421;1251;73635;-78
2022/04/22 05:28:06;;;;;;;27.60;18.10;;;;;;;9.41;57.83;100760.68;107474;1250;60850;-78
2022/04/22 05:33:28;;;;;;;28.10;19.00;;;;;;;9.69;56.07;100761.27;107115;1251;71779;-71
2022/04/22 05:35:57;;;;;;;27.20;18.10;;;;;;;9.78;55.69;100762.02;107114;1251;70429;-73
2022/04/22 05:38:26;;;;;;;28.10;18.90;;;;;;;9.76;54.89;100762.50;107140;1251;68779;-73
2022/04/22 05:40:55;;;;;;;30.30;20.50;;;;;;;9.79;54.95;100765.77;107074;1251;73591;-73
2022/04/22 05:43:24;;;;;;;30.30;19.50;;;;;;;9.96;54.67;100767.61;107087;1251;62754;-78
2022/04/22 05:45:53;;;;;;;23.00;17.50;;;;;;;10.05;54.10;100766.94;107077;1253;59775;-76
2022/04/22 05:48:22;;;;;;;27.70;18.10;;;;;;;10.20;53.52;100771.16;107100;1251;72398;-74
2022/04/22 05:50:51;;;;;;;24.90;18.40;;;;;;;10.29;53.76;100776.27;107052;1251;72908;-74
2022/04/22 05:53:19;;;;;;;26.60;18.70;;;;;;;10.40;53.09;100774.62;107133;1251;71408;-75
2022/04/22 05:55:48;;;;;;;27.20;19.60;;;;;;;10.39;53.55;100780.09;107120;1251;71992;-75
2022/04/22 05:58:17;;;;;;;26.30;17.90;;;;;;;10.17;53.70;100787.72;107121;1251;58771;-76
2022/04/22 06:00:47;;;;;;;25.10;18.10;;;;;;;10.31;53.83;100788.48;107179;1251;61343;-76
2022/04/22 06:03:22;;;;;;;26.70;19.70;;;;;;;10.45;53.56;100794.48;107111;1251;73473;-78
2022/04/22 06:05:50;;;;;;;27.60;19.30;;;;;;;10.52;52.89;100791.52;107091;1251;72752;-77
2022/04/22 06:11:06;;;;;;;25.00;19.20;;;;;;;10.61;52.45;100787.77;107367;1251;72031;-76
2022/04/22 06:13:35;;;;;;;23.00;17.80;;;;;;;10.65;52.46;100774.25;107528;1250;59939;-74
2022/04/22 06:16:04;;;;;;;26.30;18.20;;;;;;;10.69;51.82;100775.55;107313;1252;59582;-76
2022/04/22 06:18:33;;;;;;;24.10;18.00;;;;;;;10.70;51.60;100779.43;107540;1250;70769;-74
2022/04/22 06:21:02;;;;;;;21.70;16.70;;;;;;;10.90;51.41;100779.77;107230;1251;72312;-78
2022/04/22 06:23:31;;;;;;;23.30;17.00;;;;;;;11.00;50.27;100778.66;107271;1251;70290;-76
2022/04/22 06:26:00;;;;;;;21.90;16.60;;;;;;;11.04;50.06;100777.70;107310;1251;73501;-76
2022/04/22 06:28:29;;;;;;;24.70;15.00;;;;;;;11.13;49.79;100781.55;107316;1250;59764;-75
2022/04/22 06:31:04;;;;;;;24.50;16.60;;;;;;;11.48;49.25;100773.54;107590;1250;60467;-77
2022/04/22 06:33:33;;;;;;;21.90;16.70;;;;;;;11.51;48.63;100769.17;107110;1251;72263;-77
2022/04/22 06:36:04;;;;;;;21.60;14.70;;;;;;;11.55;47.52;100764.27;107426;1251;69698;-75
2022/04/22 06:38:35;;;;;;;21.40;14.30;;;;;;;11.71;47.33;100763.59;107350;1251;69157;-75
2022/04/22 06:46:40;;;;;;;18.50;13.70;;;;;;;12.28;45.82;100758.50;107295;1251;59165;-72
2022/04/22 06:49:11;;;;;;;14.60;11.50;;;;;;;12.60;45.42;100751.30;107244;1250;72919;-73
2022/04/22 06:51:40;;;;;;;15.00;12.20;;;;;;;12.71;43.07;100747.92;106961;1251;69383;-74
2022/04/22 06:54:12;;;;;;;14.20;10.70;;;;;;;12.87;42.29;100741.42;107300;1251;68742;-79
2022/04/22 06:56:44;;;;;;;13.50;10.20;;;;;;;13.09;41.80;100740.66;107031;1253;73586;-76
2022/04/22 06:59:21;;;;;;;13.50;10.30;;;;;;;13.17;41.32;100741.91;107250;1251;61153;-69
2022/04/22 07:01:51;;;;;;;15.30;11.00;;;;;;;13.18;40.44;100735.90;107232;1251;59413;-73
2022/04/22 07:04:22;;;;;;;16.40;10.60;;;;;;;13.34;39.91;100738.30;107356;1251;70999;-72
2022/04/22 07:06:52;;;;;;;12.60;9.30;;;;;;;13.47;41.33;100734.72;107107;1251;73838;-72
2022/04/22 07:09:21;;;;;;;18.30;10.60;;;;;;;13.44;39.13;100727.07;107169;1251;69126;-70
2022/04/22 07:11:52;;;;;;;16.40;9.90;;;;;;;13.50;39.61;100723.10;107057;1249;72395;-72
2022/04/22 07:14:22;;;;;;;17.40;11.10;;;;;;;13.57;39.23;100727.22;106994;1251;61353;-71
2022/04/22 07:16:52;;;;;;;15.20;10.60;;;;;;;13.62;39.09;100734.48;107008;1251;60566;-73
2022/04/22 07:19:21;;;;;;;15.60;10.50;;;;;;;13.81;39.51;100736.89;106763;1254;71622;-71
2022/04/22 07:21:51;;;;;;;17.50;13.00;;;;;;;13.94;38.92;100724.04;106570;1251;71410;-73
2022/04/22 07:24:22;;;;;;;18.20;13.90;;;;;;;13.81;40.68;100738.49;106852;1251;71591;-73
2022/04/22 07:27:01;;;;;;;15.80;11.60;;;;;;;13.72;40.34;100745.02;106784;1251;74016;-73
2022/04/22 07:29:33;;;;;;;16.40;10.70;;;;;;;13.69;38.23;100745.77;106816;1251;61488;-74
2022/04/22 07:32:10;;;;;;;17.20;10.60;;;;;;;13.98;38.10;100732.30;106895;1251;60975;-77
2022/04/22 07:34:42;;;;;;;12.10;10.60;;;;;;;14.38;37.58;100734.80;106966;1251;73220;-75
2022/04/22 07:37:24;;;;;;;12.50;8.60;;;;;;;14.48;35.76;100730.52;106902;1251;72340;-73
2022/04/22 07:39:56;;;;;;;11.60;9.50;;;;;;;14.57;35.58;100734.48;106672;1253;69125;-73
2022/04/22 07:48:43;;;;;;;19.50;10.10;;;;;;;14.42;35.98;100734.92;107150;1251;59816;-74
2022/04/22 07:51:13;;;;;;;12.70;10.50;;;;;;;14.55;36.41;100735.70;106757;1253;73251;-73
2022/04/22 07:53:43;;;;;;;23.50;14.60;;;;;;;14.38;36.41;100728.41;106936;1251;73973;-75
2022/04/22 07:56:13;;;;;;;13.30;10.70;;;;;;;14.21;36.90;100737.50;106794;1253;68710;-74
2022/04/22 07:58:43;;;;;;;15.50;11.30;;;;;;;14.09;37.32;100722.55;106603;1252;75627;-75
2022/04/22 08:01:12;;;;;;;16.80;10.90;;;;;;;14.21;37.46;100739.89;106802;1251;59995;-75
2022/04/22 08:03:43;;;;;;;16.80;11.10;;;;;;;14.76;36.64;100727.91;106803;1250;60606;-74
2022/04/22 08:06:13;;;;;;;17.40;10.10;;;;;;;15.00;35.74;100726.23;106806;1252;71877;-75
2022/04/22 08:08:43;;;;;;;15.30;11.50;;;;;;;14.76;36.22;100731.27;106894;1251;72099;-71
2022/04/22 08:11:14;;;;;;;22.90;12.20;;;;;;;14.88;36.25;100724.21;106815;1253;70384;-76
2022/04/22 08:13:44;;;;;;;16.10;12.30;;;;;;;14.93;36.29;100723.74;106914;1251;75646;-74
2022/04/22 08:16:14;;;;;;;16.30;11.80;;;;;;;14.91;35.95;100723.61;106910;1251;63614;-73
2022/04/22 08:18:45;;;;;;;16.50;11.30;;;;;;;14.99;35.81;100714.94;106823;1251;62118;-76
2022/04/22 08:21:17;;;;;;;15.90;11.10;;;;;;;15.28;35.23;100716.17;106883;1250;73580;-75
2022/04/22 08:23:48;;;;;;;16.40;10.90;;;;;;;15.37;35.33;100704.09;106959;1251;73553;-74
2022/04/22 08:26:19;;;;;;;12.80;10.30;;;;;;;15.52;35.18;100704.61;107110;1249;69795;-72
2022/04/22 08:28:48;;;;;;;13.70;9.30;;;;;;;15.55;34.20;100700.71;107419;1250;71763;-74
2022/04/22 08:31:17;;;;;;;16.10;10.10;;;;;;;15.57;34.06;100693.33;107140;1251;59942;-74
2022/04/22 08:33:48;;;;;;;14.00;10.70;;;;;;;15.19;34.31;100693.67;106968;1251;61662;-75
2022/04/22 08:36:22;;;;;;;14.50;9.90;;;;;;;15.57;34.22;100691.90;107090;1250;72214;-73
2022/04/22 08:38:51;;;;;;;16.00;10.70;;;;;;;15.84;33.87;100695.38;107401;1249;72310;-76
2022/04/22 08:41:24;;;;;;;12.80;8.80;;;;;;;15.73;34.45;100695.34;107301;1249;69251;-72
2022/04/22 08:43:56;;;;;;;13.40;11.00;;;;;;;15.87;33.67;100698.67;107275;1249;74784;-73
2022/04/22 08:52:04;;;;;;;14.10;9.60;;;;;;;16.17;34.13;100697.27;107184;1250;72826;-76
2022/04/22 08:54:35;;;;;;;13.70;9.80;;;;;;;16.31;33.63;100695.98;106899;1254;70774;-74
2022/04/22 08:57:03;;;;;;;16.20;12.10;;;;;;;16.50;33.56;100696.02;107460;1251;70587;-76
2022/04/22 08:59:32;;;;;;;14.30;11.30;;;;;;;16.49;33.35;100691.55;107740;1249;71795;-77
2022/04/22 09:02:03;;;;;;;14.80;11.50;;;;;;;16.58;33.78;100692.92;107669;1250;60739;-77
2022/04/22 09:04:32;;;;;;;12.10;10.00;;;;;;;16.48;33.40;100685.11;107883;1250;59520;-77
2022/04/22 09:07:02;;;;;;;14.00;10.00;;;;;;;16.74;32.77;100683.80;107327;1251;74485;-78
2022/04/22 09:09:31;;;;;;;22.00;10.50;;;;;;;16.79;32.77;100682.39;107128;1250;70001;-75
2022/04/22 09:12:31;;;;;;;22.00;9.10;;;;;;;16.74;32.26;100678.89;107285;1249;68251;-77
2022/04/22 09:15:00;;;;;;;11.40;9.10;;;;;;;16.89;31.84;100678.13;107170;1251;72042;-77
2022/04/22 09:17:34;;;;;;;11.80;8.90;;;;;;;16.98;31.58;100673.20;107278;1251;59568;-76
2022/04/22 09:20:05;;;;;;;12.00;8.20;;;;;;;17.07;31.45;100677.68;107215;1253;59587;-74
2022/04/22 09:22:35;;;;;;;13.40;8.00;;;;;;;17.11;30.54;100678.76;107229;1251;75188;-75
2022/04/22 09:25:07;;;;;;;9.20;7.30;;;;;;;17.16;30.39;100682.44;107100;1250;73640;-77
2022/04/22 09:27:38;;;;;;;10.40;7.70;;;;;;;17.03;30.20;100675.99;107058;1249;69419;-75
2022/04/22 09:30:11;;;;;;;12.10;7.50;;;;;;;16.81;30.32;100683.84;107334;1249;73038;-74
2022/04/22 09:32:44;;;;;;;12.10;7.90;;;;;;;17.05;30.27;100684.27;107043;1251;59657;-76
2022/04/22 09:35:16;;;;;;;;;;;;;;;16.99;30.47;100677.84;106867;1251;61349;-74
2022/04/22 09:43:49;;;;;;;14.20;7.60;;;;;;;17.93;27.92;100683.61;107185;1250;71599;-78
2022/04/22 09:46:32;;;;;;;12.00;7.90;;;;;;;17.72;28.33;100682.21;107252;1251;74510;-78
2022/04/22 09:49:01;;;;;;;13.20;7.50;;;;;;;17.16;28.90;100678.41;107664;1249;60468;-77
2022/04/22 09:51:31;;;;;;;9.90;7.60;;;;;;;17.20;29.02;100672.43;107584;1250;60569;-77
2022/04/22 09:54:03;;;;;;;11.60;7.90;;;;;;;16.92;29.30;100670.24;107549;1251;74079;-79
2022/04/22 09:56:35;;;;;;;9.60;7.10;;;;;;;16.65;29.51;100666.07;107331;1252;71807;-78
2022/04/22 09:59:25;;;;;;;10.90;7.80;;;;;;;17.35;29.07;100674.02;107501;1250;70975;-77
2022/04/22 10:01:55;;;;;;;11.10;7.60;;;;;;;17.39;28.81;100664.79;107799;1250;72009;-76
2022/04/22 10:04:35;;;;;;;10.30;7.10;;;;;;;17.72;28.72;100673.42;107387;1250;60591;-77
2022/04/22 10:07:06;;;;;;;11.20;7.40;;;;;;;17.71;28.41;100674.23;107461;1250;61058;-79
2022/04/22 10:09:36;;;;;;;8.50;6.60;;;;;;;17.75;28.20;100665.39;107151;1249;74240;-79
2022/04/22 10:12:12;;;;;;;9.30;7.70;;;;;;;18.04;27.64;100664.99;107489;1249;71861;-80
2022/04/22 10:14:46;;;;;;;10.30;7.90;;;;;;;17.87;28.29;100657.77;107137;1251;68585;-77
2022/04/22 10:17:17;;;;;;;8.80;7.30;;;;;;;17.81;28.13;100662.98;107191;1249;72348;-77
2022/04/22 10:19:48;;;;;;;8.80;7.20;;;;;;;17.97;28.20;100663.39;107361;1250;59769;-79
2022/04/22 10:22:18;;;;;;;9.40;7.90;;;;;;;17.94;28.42;100665.48;107422;1250;61449;-79
2022/04/22 10:24:50;;;;;;;10.30;7.70;;;;;;;17.61;29.04;100658.15;107258;1251;72211;-79
2022/04/22 10:27:19;;;;;;;11.70;7.90;;;;;;;17.83;29.09;100665.60;107087;1250;71549;-77
2022/04/22 10:29:48;;;;;;;10.40;8.50;;;;;;;18.15;28.71;100661.70;107148;1250;70415;-75
2022/04/22 10:32:19;;;;;;;8.50;6.70;;;;;;;17.90;28.32;100662.25;107192;1251;72760;-78
2022/04/22 10:34:57;;;;;;;10.70;7.60;;;;;;;17.73;28.37;100662.91;107487;1249;60832;-78
2022/04/22 10:37:28;;;;;;;11.00;7.20;;;;;;;18.19;28.16;100661.83;107136;1251;59701;-75
2022/04/22 10:39:58;;;;;;;10.10;7.40;;;;;;;18.32;28.21;100658.49;107171;1251;72511;-74
2022/04/22 10:42:37;;;;;;;11.10;7.20;;;;;;;18.37;28.49;100651.95;107323;1250;71741;-75
2022/04/22 10:47:57;;;;;;;10.80;7.00;;;;;;;18.70;28.29;100649.48;107418;1249;73678;-75
2022/04/22 10:50:38;;;;;;;10.40;7.40;;;;;;;17.87;28.51;100650.57;107208;1250;59702;-76
2022/04/22 10:53:23;;;;;;;9.30;7.30;;;;;;;18.10;29.02;100655.34;107491;1251;58361;-79
2022/04/22 10:55:53;;;;;;;13.00;7.00;;;;;;;18.27;28.58;100649.77;107622;1251;73589;-78
2022/04/22 10:58:42;;;;;;;8.00;6.80;;;;;;;17.90;28.86;100650.53;107870;1249;71466;-77
2022/04/22 11:01:29;;;;;;;7.70;6.50;;;;;;;18.17;28.45;100646.77;107551;1251;71033;-76
2022/04/22 11:03:59;;;;;;;10.70;7.40;;;;;;;18.26;28.51;100643.08;107488;1252;72737;-76
2022/04/22 11:06:34;;;;;;;11.60;7.30;;;;;;;18.28;28.23;100634.10;107837;1249;60873;-78
2022/04/22 11:09:04;;;;;;;11.00;7.30;;;;;;;18.32;28.73;100630.80;107431;1250;59732;-78
2022/04/22 11:11:41;;;;;;;8.40;6.90;;;;;;;18.11;29.05;100630.73;107549;1249;73745;-78
2022/04/22 11:14:28;;;;;;;16.50;7.40;;;;;;;17.72;29.50;100631.86;107693;1249;70226;-78
2022/04/22 11:17:33;;;;;;;10.20;6.90;;;;;;;17.64;29.73;100635.45;107646;1250;68819;-78
2022/04/22 11:20:05;;;;;;;7.80;6.70;;;;;;;17.83;29.34;100636.91;107670;1250;71349;-76
2022/04/22 11:22:58;;;;;;;12.20;7.50;;;;;;;17.96;28.99;100632.56;107560;1249;60663;-75
2022/04/22 11:25:29;;;;;;;;;;;;;;;17.59;29.92;100633.17;107495;1249;59806;-76
2022/04/22 11:27:58;;;;;;;10.70;7.80;;;;;;;17.26;30.69;100630.92;107472;1250;73618;-77
2022/04/22 11:30:27;;;;;;;12.90;8.10;;;;;;;17.18;31.12;100629.66;107546;1249;72279;-77
2022/04/22 11:33:13;;;;;;;10.50;8.20;;;;;;;17.20;31.30;100624.98;107424;1250;69967;-76
2022/04/22 11:35:42;;;;;;;14.60;9.00;;;;;;;17.26;31.48;100616.52;107461;1249;74500;-77
2022/04/22 11:38:13;;;;;;;14.70;9.30;;;;;;;17.07;32.02;100610.80;107329;1250;60926;-76
2022/04/22 11:40:44;;;;;;;10.20;8.60;;;;;;;16.85;32.66;100604.79;108514;1249;61386;-77
2022/04/22 11:43:20;;;;;;;11.60;9.40;;;;;;;16.74;33.21;100605.42;107402;1250;74992;-75
2022/04/22 11:45:51;;;;;;;13.00;8.90;;;;;;;16.80;33.65;100592.35;107213;1251;69797;-74
2022/04/22 11:48:24;;;;;;;11.70;8.30;;;;;;;16.79;33.83;100586.80;107236;1250;71018;-74
2022/04/22 11:51:01;;;;;;;12.00;8.20;;;;;;;16.82;34.01;100585.12;107319;1251;71709;-76
2022/04/22 11:53:32;;;;;;;10.90;8.50;;;;;;;16.86;33.93;100584.33;107396;1249;61456;-75
2022/04/22 11:56:02;;;;;;;13.00;8.60;;;;;;;17.06;33.58;100576.73;107244;1251;60681;-75
2022/04/22 11:58:32;;;;;;;12.20;8.50;;;;;;;17.46;33.30;100571.48;107314;1251;73395;-76
2022/04/22 12:06:43;;;;;;;11.60;9.00;;;;;;;17.22;34.33;100565.90;107200;1250;73952;-74
2022/04/22 12:09:11;;;;;;;12.50;8.90;;;;;;;17.42;34.03;100560.28;107186;1252;60925;-76
2022/04/22 12:11:43;;;;;;;12.10;8.60;;;;;;;17.07;34.79;100549.17;107633;1250;60328;-76
2022/04/22 12:14:22;;;;;;;11.50;8.60;;;;;;;17.51;34.44;100554.11;107646;1249;71504;-77
2022/04/22 12:17:04;;;;;;;10.50;8.00;;;;;;;17.65;34.43;100556.02;107411;1250;70454;-76
2022/04/22 12:19:34;;;;;;;13.80;7.70;;;;;;;18.42;33.63;100554.35;107563;1249;66952;-74
2022/04/22 12:22:06;;;;;;;11.20;7.60;;;;;;;18.87;32.82;100549.80;107613;1249;71691;-78
2022/04/22 12:24:35;;;;;;;9.10;6.90;;;;;;;18.64;32.90;100539.45;107826;1250;59531;-77
2022/04/22 12:27:21;;;;;;;9.40;6.70;;;;;;;18.85;32.66;100538.85;108173;1249;60478;-77
2022/04/22 12:30:11;;;;;;;8.60;7.20;;;;;;;18.83;32.61;100536.98;107968;1251;74913;-75
2022/04/22 12:32:43;;;;;;;12.70;8.10;;;;;;;18.52;32.99;100530.52;107499;1252;62346;-74
2022/04/22 12:35:19;;;;;;;10.40;7.70;;;;;;;18.07;33.92;100524.59;107689;1249;69668;-77
2022/04/22 12:37:53;;;;;;;10.40;8.10;;;;;;;18.82;32.76;100518.73;107714;1250;72205;-77
2022/04/22 12:40:22;;;;;;;17.00;8.60;;;;;;;19.07;32.51;100518.40;107595;1249;60594;-78
2022/04/22 12:42:52;;;;;;;11.70;8.80;;;;;;;19.80;31.51;100516.95;107888;1249;60237;-78
2022/04/22 12:54:09;;;;;;;12.40;7.20;;;;;;;20.07;30.87;100505.13;108107;1249;63448;-79
2022/04/22 12:56:54;;;;;;;11.20;7.70;;;;;;;20.83;29.97;100497.62;107447;1249;60521;-76
2022/04/22 12:59:24;;;;;;;10.10;7.40;;;;;;;20.98;29.06;100497.58;107342;1250;59556;-75
2022/04/22 13:01:53;;;;;;;9.90;7.40;;;;;;;21.01;28.89;100501.00;107473;1249;75794;-76
2022/04/22 13:04:23;;;;;;;10.30;7.00;;;;;;;20.14;30.11;100498.61;107307;1251;62354;-76